Palisade, Minnesota
Current Conditions -  °F | °C
As of 2:27 AM on Saturday 29 Nov 2014 (Local Time) from KHZX Reporting Station
Overcast Overcast  
Wind Chill: 11°   Ceiling: 1000
Heat Index: 21°   Visibility: 10mi
Dew Point: 18°   Wind: 9mph
Humidity: 86%   Direction: 140°SE
Pressure: 29.57"   Gusts: NA
Location:  46.71°N, 93.49°W
Report Text: KHZX 290827Z AUTO 14008KT 10SM OVC010 M06/M08 A2957 RMK AO2
Loading
Personal Weather Stations






























Interactive Weather Map New forecast layout! Learn more

10-Day Weather Forecast

Advertisements
Track Severe Weather on mobile